PWSweather.com
Personal Weather Stations
Station Observations
PICKERING
North Yorkshire, PickeringGB

North YorkshirePickeringGB

Lat: 54.2494, Lon: -0.7725

Elevation: 192

Station Type: Oregon Scientific WMR100

http://www.yorkshirewalker.co.uk/weather/

High Low Average
Temperature 51.6°F10.9°C 36.1°F2.3°C 42.9°F6.1°C
Dew Point 39.2°F4.0°C 30.2°F-1.0°C 34.5°F1.4°C
Winds 19.9 mph 32.0 kmh 0.1 mph 0.2 kmh 9.0 mph SW14.5 kmh SW
Wind Gusts 33.1 mph53.3 kmh 0.9 mph1.4 kmh 16.0 mph25.7 kmh
Humidity 82% 57% 71%
Pressure 28.82 in976.0 mb 28.26 in957.0 mb -
Precipitation 0.48 in12.2 mm - -
Hour Temp Dew Point Humidity Winds Wind Gusts Pressure Precip Precip Rate Daily Precip Total
12:00 AM 43.2°F6.2°C 35.6°F2.0°C 71% 8.0 mph SW12.9 kmh SW 12.8 mph20.6 kmh 28.38 in961.1 mb 0.00 in0.0 mm 0.00 in0.0 mm 0.00 in0.0 mm
12:05 AM 43.2°F6.2°C 35.6°F2.0°C 71% 8.5 mph SW13.7 kmh SW 12.8 mph20.6 kmh 28.38 in961.1 mb 0.00 in0.0 mm 0.00 in0.0 mm 0.00 in0.0 mm
12:10 AM 43.2°F6.2°C 33.8°F1.0°C 70% 7.8 mph SW12.6 kmh SW 12.8 mph20.6 kmh 28.41 in962.1 mb 0.00 in0.0 mm 0.00 in0.0 mm 0.00 in0.0 mm
12:15 AM 43.0°F6.1°C 33.8°F1.0°C 70% 6.6 mph SW10.6 kmh SW 8.5 mph13.7 kmh 28.41 in962.1 mb 0.00 in0.0 mm 0.00 in0.0 mm 0.00 in0.0 mm
12:20 AM 43.0°F6.1°C 33.8°F1.0°C 70% 6.0 mph SW9.7 kmh SW 11.9 mph19.2 kmh 28.41 in962.1 mb 0.00 in0.0 mm 0.00 in0.0 mm 0.00 in0.0 mm
12:25 AM 42.8°F6.0°C 33.8°F1.0°C 70% 5.6 mph SW9.0 kmh SW 11.9 mph19.2 kmh 28.41 in962.1 mb 0.00 in0.0 mm 0.00 in0.0 mm 0.00 in0.0 mm
12:30 AM 42.8°F6.0°C 33.8°F1.0°C 71% 5.2 mph SW8.4 kmh SW 8.5 mph13.7 kmh 28.41 in962.1 mb 0.00 in0.0 mm 0.00 in0.0 mm 0.00 in0.0 mm
12:35 AM 42.8°F6.0°C 33.8°F1.0°C 71% 4.3 mph SW6.9 kmh SW 8.5 mph13.7 kmh 28.41 in962.1 mb 0.00 in0.0 mm 0.00 in0.0 mm 0.00 in0.0 mm
12:40 AM 42.8°F6.0°C 33.8°F1.0°C 71% 5.0 mph SSW8.0 kmh SSW 10.1 mph16.3 kmh 28.41 in962.1 mb 0.00 in0.0 mm 0.00 in0.0 mm 0.00 in0.0 mm
12:45 AM 42.8°F6.0°C 33.8°F1.0°C 71% 6.6 mph SW10.6 kmh SW 11.4 mph18.3 kmh 28.41 in962.1 mb 0.00 in0.0 mm 0.00 in0.0 mm 0.00 in0.0 mm
12:50 AM 42.8°F6.0°C 33.8°F1.0°C 71% 7.5 mph WSW12.1 kmh WSW 11.4 mph18.3 kmh 28.41 in962.1 mb 0.00 in0.0 mm 0.00 in0.0 mm 0.00 in0.0 mm
12:55 AM 42.6°F5.9°C 33.8°F1.0°C 71% 5.9 mph SW9.5 kmh SW 11.0 mph17.7 kmh 28.41 in962.1 mb 0.00 in0.0 mm 0.00 in0.0 mm 0.00 in0.0 mm
01:00 AM 42.6°F5.9°C 33.8°F1.0°C 71% 6.1 mph SSW9.8 kmh SSW 11.9 mph19.2 kmh 28.41 in962.1 mb 0.00 in0.0 mm 0.00 in0.0 mm 0.00 in0.0 mm
01:05 AM 42.6°F5.9°C 33.8°F1.0°C 71% 7.4 mph SW11.9 kmh SW 11.9 mph19.2 kmh 28.41 in962.1 mb 0.00 in0.0 mm 0.00 in0.0 mm 0.00 in0.0 mm
01:10 AM 42.4°F5.8°C 33.8°F1.0°C 71% 7.7 mph SW12.4 kmh SW 16.1 mph25.9 kmh 28.41 in962.1 mb 0.00 in0.0 mm 0.00 in0.0 mm 0.00 in0.0 mm
01:15 AM 42.3°F5.7°C 33.8°F1.0°C 71% 8.7 mph SW14.0 kmh SW 16.1 mph25.9 kmh 28.41 in962.1 mb 0.00 in0.0 mm 0.00 in0.0 mm 0.00 in0.0 mm
01:20 AM 42.3°F5.7°C 33.8°F1.0°C 71% 7.5 mph SW12.1 kmh SW 14.1 mph22.7 kmh 28.41 in962.1 mb 0.00 in0.0 mm 0.00 in0.0 mm 0.00 in0.0 mm
01:25 AM 42.4°F5.8°C 33.8°F1.0°C 71% 6.4 mph SW10.3 kmh SW 12.8 mph20.6 kmh 28.38 in961.1 mb 0.00 in0.0 mm 0.00 in0.0 mm 0.00 in0.0 mm
01:30 AM 42.4°F5.8°C 33.8°F1.0°C 71% 6.5 mph SW10.5 kmh SW 15.4 mph24.8 kmh 28.38 in961.1 mb 0.00 in0.0 mm 0.00 in0.0 mm 0.00 in0.0 mm
01:35 AM 42.4°F5.8°C 33.8°F1.0°C 70% 7.8 mph SW12.6 kmh SW 15.4 mph24.8 kmh 28.38 in961.1 mb 0.00 in0.0 mm 0.00 in0.0 mm 0.00 in0.0 mm
01:40 AM 42.3°F5.7°C 33.8°F1.0°C 70% 8.0 mph SW12.9 kmh SW 15.4 mph24.8 kmh 28.35 in960.0 mb 0.00 in0.0 mm 0.00 in0.0 mm 0.00 in0.0 mm
01:45 AM 42.1°F5.6°C 33.8°F1.0°C 70% 8.2 mph SW13.2 kmh SW 13.0 mph20.9 kmh 28.35 in960.0 mb 0.00 in0.0 mm 0.00 in0.0 mm 0.00 in0.0 mm
01:50 AM 41.7°F5.4°C 32.0°F0.0°C 69% 8.4 mph SW13.5 kmh SW 14.1 mph22.7 kmh 28.35 in960.0 mb 0.00 in0.0 mm 0.00 in0.0 mm 0.00 in0.0 mm
01:55 AM 41.5°F5.3°C 33.8°F1.0°C 70% 6.9 mph SW11.1 kmh SW 14.1 mph22.7 kmh 28.35 in960.0 mb 0.00 in0.0 mm 0.00 in0.0 mm 0.00 in0.0 mm
02:00 AM 41.7°F5.4°C 32.0°F0.0°C 69% 8.7 mph SW14.0 kmh SW 15.2 mph24.5 kmh 28.35 in960.0 mb 0.00 in0.0 mm 0.00 in0.0 mm 0.00 in0.0 mm
02:05 AM 41.5°F5.3°C 32.0°F0.0°C 69% 9.9 mph SW15.9 kmh SW 15.2 mph24.5 kmh 28.35 in960.0 mb 0.00 in0.0 mm 0.00 in0.0 mm 0.00 in0.0 mm
02:10 AM 41.5°F5.3°C 32.0°F0.0°C 69% 8.9 mph SW14.3 kmh SW 11.0 mph17.7 kmh 28.35 in960.0 mb 0.00 in0.0 mm 0.00 in0.0 mm 0.00 in0.0 mm
02:15 AM 41.4°F5.2°C 32.0°F0.0°C 69% 7.7 mph SW12.4 kmh SW 11.0 mph17.7 kmh 28.35 in960.0 mb 0.00 in0.0 mm 0.00 in0.0 mm 0.00 in0.0 mm
02:20 AM 41.2°F5.1°C 32.0°F0.0°C 69% 7.6 mph SW12.2 kmh SW 11.0 mph17.7 kmh 28.35 in960.0 mb 0.00 in0.0 mm 0.00 in0.0 mm 0.00 in0.0 mm
02:25 AM 41.2°F5.1°C 32.0°F0.0°C 69% 7.1 mph SW11.4 kmh SW 12.8 mph20.6 kmh 28.35 in960.0 mb 0.00 in0.0 mm 0.00 in0.0 mm 0.00 in0.0 mm
02:30 AM 41.2°F5.1°C 32.0°F0.0°C 69% 9.9 mph SSW15.9 kmh SSW 17.9 mph28.8 kmh 28.35 in960.0 mb 0.00 in0.0 mm 0.00 in0.0 mm 0.00 in0.0 mm
02:35 AM 41.0°F5.0°C 32.0°F0.0°C 69% 12.1 mph SSW19.5 kmh SSW 17.9 mph28.8 kmh 28.35 in960.0 mb 0.00 in0.0 mm 0.00 in0.0 mm 0.00 in0.0 mm
02:40 AM 41.2°F5.1°C 32.0°F0.0°C 68% 10.9 mph SW17.5 kmh SW 15.4 mph24.8 kmh 28.35 in960.0 mb 0.00 in0.0 mm 0.00 in0.0 mm 0.00 in0.0 mm
02:45 AM 41.2°F5.1°C 32.0°F0.0°C 68% 11.3 mph SW18.2 kmh SW 17.4 mph28.0 kmh 28.35 in960.0 mb 0.00 in0.0 mm 0.00 in0.0 mm 0.00 in0.0 mm
02:50 AM 41.2°F5.1°C 32.0°F0.0°C 67% 10.8 mph SW17.4 kmh SW 17.4 mph28.0 kmh 28.35 in960.0 mb 0.00 in0.0 mm 0.00 in0.0 mm 0.00 in0.0 mm
02:55 AM 41.4°F5.2°C 30.2°F-1.0°C 66% 8.7 mph SW14.0 kmh SW 13.2 mph21.2 kmh 28.29 in958.0 mb 0.00 in0.0 mm 0.00 in0.0 mm 0.00 in0.0 mm
03:00 AM 41.4°F5.2°C 30.2°F-1.0°C 66% 7.0 mph SSW11.3 kmh SSW 12.8 mph20.6 kmh 28.29 in958.0 mb 0.00 in0.0 mm 0.00 in0.0 mm 0.00 in0.0 mm
03:05 AM 41.5°F5.3°C 32.0°F0.0°C 66% 10.4 mph SW16.7 kmh SW 17.7 mph28.5 kmh 28.29 in958.0 mb 0.00 in0.0 mm 0.00 in0.0 mm 0.00 in0.0 mm
03:10 AM 41.7°F5.4°C 32.0°F0.0°C 65% 12.7 mph SW20.4 kmh SW 17.7 mph28.5 kmh 28.32 in959.0 mb 0.00 in0.0 mm 0.00 in0.0 mm 0.00 in0.0 mm
03:15 AM 41.7°F5.4°C 32.0°F0.0°C 65% 11.9 mph SW19.2 kmh SW 17.2 mph27.7 kmh 28.32 in959.0 mb 0.00 in0.0 mm 0.00 in0.0 mm 0.00 in0.0 mm
03:20 AM 41.7°F5.4°C 32.0°F0.0°C 65% 11.7 mph SW18.8 kmh SW 17.2 mph27.7 kmh 28.32 in959.0 mb 0.00 in0.0 mm 0.00 in0.0 mm 0.00 in0.0 mm
03:25 AM 41.7°F5.4°C 32.0°F0.0°C 65% 11.0 mph SW17.7 kmh SW 17.0 mph27.4 kmh 28.32 in959.0 mb 0.00 in0.0 mm 0.00 in0.0 mm 0.00 in0.0 mm
03:30 AM 41.5°F5.3°C 32.0°F0.0°C 66% 13.4 mph SW21.6 kmh SW 24.2 mph38.9 kmh 28.32 in959.0 mb 0.00 in0.0 mm 0.00 in0.0 mm 0.00 in0.0 mm
03:35 AM 41.0°F5.0°C 32.0°F0.0°C 67% 13.1 mph SW21.1 kmh SW 24.2 mph38.9 kmh 28.32 in959.0 mb 0.00 in0.0 mm 0.00 in0.0 mm 0.00 in0.0 mm
03:40 AM 40.8°F4.9°C 32.0°F0.0°C 68% 11.3 mph SSW18.2 kmh SSW 17.0 mph27.4 kmh 28.32 in959.0 mb 0.00 in0.0 mm 0.00 in0.0 mm 0.00 in0.0 mm
03:45 AM 40.5°F4.7°C 32.0°F0.0°C 70% 10.6 mph SSW17.1 kmh SSW 17.0 mph27.4 kmh 28.32 in959.0 mb 0.00 in0.0 mm 0.00 in0.0 mm 0.00 in0.0 mm
03:50 AM 40.1°F4.5°C 32.0°F0.0°C 71% 13.2 mph SSW21.2 kmh SSW 31.1 mph50.1 kmh 28.32 in959.0 mb 0.00 in0.0 mm 0.00 in0.0 mm 0.00 in0.0 mm
03:55 AM 39.7°F4.3°C 32.0°F0.0°C 73% 14.4 mph SSW23.2 kmh SSW 31.1 mph50.1 kmh 28.29 in958.0 mb 0.00 in0.0 mm 0.00 in0.0 mm 0.00 in0.0 mm
04:00 AM 39.6°F4.2°C 32.0°F0.0°C 74% 12.3 mph SW19.8 kmh SW 23.3 mph37.5 kmh 28.29 in958.0 mb 0.13 in3.3 mm 0.14 in3.6 mm 0.13 in3.3 mm
04:05 AM 39.4°F4.1°C 32.0°F0.0°C 74% 11.8 mph SW19.0 kmh SW 19.9 mph32.0 kmh 28.29 in958.0 mb 0.13 in3.3 mm 0.00 in0.0 mm 0.13 in3.3 mm
04:10 AM 39.4°F4.1°C 32.0°F0.0°C 75% 13.7 mph SW22.0 kmh SW 25.9 mph41.7 kmh 28.26 in957.0 mb 0.13 in3.3 mm 0.00 in0.0 mm 0.13 in3.3 mm
04:15 AM 39.4°F4.1°C 32.0°F0.0°C 75% 13.7 mph SSW22.0 kmh SSW 25.9 mph41.7 kmh 28.26 in957.0 mb 0.13 in3.3 mm 0.00 in0.0 mm 0.13 in3.3 mm
04:20 AM 39.2°F4.0°C 32.0°F0.0°C 76% 13.0 mph SW20.9 kmh SW 24.2 mph38.9 kmh 28.26 in957.0 mb 0.13 in3.3 mm 0.00 in0.0 mm 0.13 in3.3 mm
04:25 AM 39.2°F4.0°C 32.0°F0.0°C 76% 11.7 mph SW18.8 kmh SW 24.2 mph38.9 kmh 28.29 in958.0 mb 0.13 in3.3 mm 0.00 in0.0 mm 0.13 in3.3 mm
04:30 AM 39.0°F3.9°C 33.8°F1.0°C 77% 9.3 mph SW15.0 kmh SW 13.0 mph20.9 kmh 28.29 in958.0 mb 0.13 in3.3 mm 0.00 in0.0 mm 0.13 in3.3 mm
04:35 AM 39.2°F4.0°C 33.8°F1.0°C 77% 8.6 mph SW13.8 kmh SW 12.1 mph19.5 kmh 28.29 in958.0 mb 0.13 in3.3 mm 0.00 in0.0 mm 0.13 in3.3 mm
04:40 AM 39.2°F4.0°C 33.8°F1.0°C 77% 8.6 mph WSW13.8 kmh WSW 17.0 mph27.4 kmh 28.26 in957.0 mb 0.13 in3.3 mm 0.00 in0.0 mm 0.13 in3.3 mm
04:45 AM 39.2°F4.0°C 33.8°F1.0°C 77% 9.3 mph SW15.0 kmh SW 17.0 mph27.4 kmh 28.26 in957.0 mb 0.24 in6.1 mm 1.32 in33.5 mm 0.24 in6.1 mm
04:50 AM 39.4°F4.1°C 33.8°F1.0°C 78% 10.3 mph SW16.6 kmh SW 17.0 mph27.4 kmh 28.26 in957.0 mb 0.24 in6.1 mm 0.00 in0.0 mm 0.24 in6.1 mm
04:55 AM 39.4°F4.1°C 33.8°F1.0°C 78% 9.4 mph SW15.1 kmh SW 12.8 mph20.6 kmh 28.29 in958.0 mb 0.24 in6.1 mm 0.00 in0.0 mm 0.24 in6.1 mm
05:00 AM 39.4°F4.1°C 33.8°F1.0°C 78% 8.7 mph SW14.0 kmh SW 19.9 mph32.0 kmh 28.29 in958.0 mb 0.11 in2.8 mm 0.00 in0.0 mm 0.24 in6.1 mm
05:05 AM 39.6°F4.2°C 33.8°F1.0°C 79% 10.4 mph SW16.7 kmh SW 19.9 mph32.0 kmh 28.29 in958.0 mb 0.11 in2.8 mm 0.00 in0.0 mm 0.24 in6.1 mm
05:10 AM 39.7°F4.3°C 33.8°F1.0°C 79% 11.7 mph WSW18.8 kmh WSW 17.2 mph27.7 kmh 28.29 in958.0 mb 0.11 in2.8 mm 0.00 in0.0 mm 0.24 in6.1 mm
05:15 AM 39.7°F4.3°C 33.8°F1.0°C 79% 12.4 mph WSW20.0 kmh WSW 17.0 mph27.4 kmh 28.29 in958.0 mb 0.11 in2.8 mm 0.00 in0.0 mm 0.24 in6.1 mm
05:20 AM 39.9°F4.4°C 33.8°F1.0°C 79% 13.1 mph WSW21.1 kmh WSW 19.0 mph30.6 kmh 28.29 in958.0 mb 0.11 in2.8 mm 0.00 in0.0 mm 0.24 in6.1 mm
05:25 AM 40.3°F4.6°C 33.8°F1.0°C 79% 11.6 mph SW18.7 kmh SW 19.0 mph30.6 kmh 28.29 in958.0 mb 0.11 in2.8 mm 0.00 in0.0 mm 0.24 in6.1 mm
05:30 AM 40.5°F4.7°C 33.8°F1.0°C 79% 10.6 mph WSW17.1 kmh WSW 18.6 mph29.9 kmh 28.29 in958.0 mb 0.11 in2.8 mm 0.00 in0.0 mm 0.24 in6.1 mm
05:35 AM 40.6°F4.8°C 33.8°F1.0°C 79% 11.4 mph WSW18.3 kmh WSW 15.9 mph25.6 kmh 28.29 in958.0 mb 0.11 in2.8 mm 0.00 in0.0 mm 0.24 in6.1 mm
05:40 AM 40.6°F4.8°C 33.8°F1.0°C 79% 13.3 mph WSW21.4 kmh WSW 25.3 mph40.7 kmh 28.32 in959.0 mb 0.11 in2.8 mm 0.00 in0.0 mm 0.24 in6.1 mm
05:45 AM 40.6°F4.8°C 33.8°F1.0°C 79% 12.7 mph WSW20.4 kmh WSW 25.3 mph40.7 kmh 28.32 in959.0 mb 0.00 in0.0 mm 0.00 in0.0 mm 0.24 in6.1 mm
05:50 AM 40.8°F4.9°C 35.6°F2.0°C 79% 13.2 mph WSW21.2 kmh WSW 22.1 mph35.6 kmh 28.32 in959.0 mb 0.00 in0.0 mm 0.00 in0.0 mm 0.24 in6.1 mm
05:55 AM 40.8°F4.9°C 35.6°F2.0°C 79% 15.4 mph WSW24.8 kmh WSW 22.1 mph35.6 kmh 28.32 in959.0 mb 0.00 in0.0 mm 0.00 in0.0 mm 0.24 in6.1 mm
06:00 AM 40.8°F4.9°C 35.6°F2.0°C 79% 16.0 mph WSW25.7 kmh WSW 21.3 mph34.3 kmh 28.32 in959.0 mb 0.00 in0.0 mm 0.00 in0.0 mm 0.24 in6.1 mm
06:05 AM 40.6°F4.8°C 35.6°F2.0°C 80% 14.9 mph WSW24.0 kmh WSW 22.8 mph36.7 kmh 28.32 in959.0 mb 0.00 in0.0 mm 0.00 in0.0 mm 0.24 in6.1 mm
06:10 AM 40.8°F4.9°C 35.6°F2.0°C 79% 16.3 mph WSW26.2 kmh WSW 33.1 mph53.3 kmh 28.35 in960.0 mb 0.00 in0.0 mm 0.00 in0.0 mm 0.24 in6.1 mm
06:15 AM 41.0°F5.0°C 35.6°F2.0°C 80% 16.2 mph WSW26.1 kmh WSW 33.1 mph53.3 kmh 28.35 in960.0 mb 0.00 in0.0 mm 0.00 in0.0 mm 0.24 in6.1 mm
06:20 AM 40.8°F4.9°C 35.6°F2.0°C 80% 12.5 mph SW20.1 kmh SW 17.7 mph28.5 kmh 28.35 in960.0 mb 0.00 in0.0 mm 0.00 in0.0 mm 0.24 in6.1 mm
06:25 AM 40.8°F4.9°C 35.6°F2.0°C 80% 12.2 mph WSW19.6 kmh WSW 17.2 mph27.7 kmh 28.32 in959.0 mb 0.00 in0.0 mm 0.00 in0.0 mm 0.24 in6.1 mm
06:30 AM 40.8°F4.9°C 35.6°F2.0°C 80% 12.8 mph WSW20.6 kmh WSW 24.6 mph39.6 kmh 28.32 in959.0 mb 0.11 in2.8 mm 1.32 in33.5 mm 0.35 in8.9 mm
06:35 AM 40.8°F4.9°C 35.6°F2.0°C 80% 14.2 mph WSW22.9 kmh WSW 24.6 mph39.6 kmh 28.32 in959.0 mb 0.11 in2.8 mm 0.00 in0.0 mm 0.35 in8.9 mm
06:40 AM 41.0°F5.0°C 35.6°F2.0°C 81% 13.9 mph SW22.4 kmh SW 30.9 mph49.7 kmh 28.35 in960.0 mb 0.11 in2.8 mm 0.00 in0.0 mm 0.35 in8.9 mm
06:45 AM 41.0°F5.0°C 37.4°F3.0°C 82% 14.1 mph SW22.7 kmh SW 30.9 mph49.7 kmh 28.35 in960.0 mb 0.24 in6.1 mm 1.56 in39.6 mm 0.48 in12.2 mm
06:50 AM 41.2°F5.1°C 37.4°F3.0°C 82% 14.0 mph WSW22.5 kmh WSW 19.2 mph30.9 kmh 28.35 in960.0 mb 0.24 in6.1 mm 0.00 in0.0 mm 0.48 in12.2 mm
06:55 AM 41.4°F5.2°C 37.4°F3.0°C 82% 13.8 mph WSW22.2 kmh WSW 19.2 mph30.9 kmh 28.35 in960.0 mb 0.24 in6.1 mm 0.00 in0.0 mm 0.48 in12.2 mm
07:00 AM 41.4°F5.2°C 37.4°F3.0°C 82% 14.2 mph WSW22.9 kmh WSW 23.9 mph38.5 kmh 28.35 in960.0 mb 0.24 in6.1 mm 0.00 in0.0 mm 0.48 in12.2 mm
07:05 AM 41.5°F5.3°C 37.4°F3.0°C 82% 13.6 mph SW21.9 kmh SW 23.9 mph38.5 kmh 28.35 in960.0 mb 0.24 in6.1 mm 0.00 in0.0 mm 0.48 in12.2 mm
07:10 AM 41.7°F5.4°C 37.4°F3.0°C 82% 11.8 mph SW19.0 kmh SW 15.9 mph25.6 kmh 28.38 in961.1 mb 0.24 in6.1 mm 0.00 in0.0 mm 0.48 in12.2 mm
07:15 AM 41.7°F5.4°C 37.4°F3.0°C 82% 12.2 mph WSW19.6 kmh WSW 17.0 mph27.4 kmh 28.38 in961.1 mb 0.24 in6.1 mm 0.00 in0.0 mm 0.48 in12.2 mm
07:20 AM 41.9°F5.5°C 37.4°F3.0°C 82% 11.9 mph WSW19.2 kmh WSW 19.7 mph31.7 kmh 28.38 in961.1 mb 0.24 in6.1 mm 0.00 in0.0 mm 0.48 in12.2 mm
07:25 AM 41.9°F5.5°C 37.4°F3.0°C 82% 10.4 mph WSW16.7 kmh WSW 19.7 mph31.7 kmh 28.38 in961.1 mb 0.24 in6.1 mm 0.00 in0.0 mm 0.48 in12.2 mm
07:30 AM 41.9°F5.5°C 37.4°F3.0°C 82% 8.8 mph SW14.2 kmh SW 12.5 mph20.1 kmh 28.38 in961.1 mb 0.13 in3.3 mm 0.00 in0.0 mm 0.48 in12.2 mm
07:35 AM 41.9°F5.5°C 37.4°F3.0°C 82% 8.8 mph WSW14.2 kmh WSW 12.5 mph20.1 kmh 28.38 in961.1 mb 0.13 in3.3 mm 0.00 in0.0 mm 0.48 in12.2 mm
07:40 AM 42.1°F5.6°C 37.4°F3.0°C 82% 9.8 mph WSW15.8 kmh WSW 14.8 mph23.8 kmh 28.38 in961.1 mb 0.13 in3.3 mm 0.00 in0.0 mm 0.48 in12.2 mm
07:45 AM 42.3°F5.7°C 37.4°F3.0°C 81% 10.9 mph WSW17.5 kmh WSW 15.2 mph24.5 kmh 28.38 in961.1 mb 0.00 in0.0 mm 0.00 in0.0 mm 0.48 in12.2 mm
07:50 AM 42.4°F5.8°C 37.4°F3.0°C 81% 12.4 mph WSW20.0 kmh WSW 25.3 mph40.7 kmh 28.38 in961.1 mb 0.00 in0.0 mm 0.00 in0.0 mm 0.48 in12.2 mm
07:55 AM 42.4°F5.8°C 37.4°F3.0°C 81% 13.3 mph WSW21.4 kmh WSW 25.3 mph40.7 kmh 28.38 in961.1 mb 0.00 in0.0 mm 0.00 in0.0 mm 0.48 in12.2 mm
08:00 AM 42.8°F6.0°C 37.4°F3.0°C 80% 13.1 mph WSW21.1 kmh WSW 22.4 mph36.0 kmh 28.38 in961.1 mb 0.00 in0.0 mm 0.00 in0.0 mm 0.48 in12.2 mm
08:05 AM 42.8°F6.0°C 37.4°F3.0°C 80% 10.9 mph SW17.5 kmh SW 19.9 mph32.0 kmh 28.38 in961.1 mb 0.00 in0.0 mm 0.00 in0.0 mm 0.48 in12.2 mm
08:10 AM 42.8°F6.0°C 37.4°F3.0°C 80% 10.6 mph SW17.1 kmh SW 19.5 mph31.4 kmh 28.44 in963.1 mb 0.00 in0.0 mm 0.00 in0.0 mm 0.48 in12.2 mm
08:15 AM 43.0°F6.1°C 37.4°F3.0°C 80% 12.1 mph WSW19.5 kmh WSW 19.5 mph31.4 kmh 28.44 in963.1 mb 0.00 in0.0 mm 0.00 in0.0 mm 0.48 in12.2 mm
08:20 AM 43.2°F6.2°C 37.4°F3.0°C 80% 12.1 mph WSW19.5 kmh WSW 22.6 mph36.4 kmh 28.44 in963.1 mb 0.00 in0.0 mm 0.00 in0.0 mm 0.48 in12.2 mm
08:25 AM 43.2°F6.2°C 37.4°F3.0°C 79% 12.2 mph WSW19.6 kmh WSW 22.6 mph36.4 kmh 28.44 in963.1 mb 0.00 in0.0 mm 0.00 in0.0 mm 0.48 in12.2 mm
08:30 AM 43.0°F6.1°C 37.4°F3.0°C 79% 11.8 mph WSW19.0 kmh WSW 14.8 mph23.8 kmh 28.44 in963.1 mb 0.00 in0.0 mm 0.00 in0.0 mm 0.48 in12.2 mm
08:35 AM 43.2°F6.2°C 37.4°F3.0°C 79% 10.8 mph SW17.4 kmh SW 17.7 mph28.5 kmh 28.44 in963.1 mb 0.00 in0.0 mm 0.00 in0.0 mm 0.48 in12.2 mm
08:40 AM 43.2°F6.2°C 37.4°F3.0°C 79% 11.0 mph SW17.7 kmh SW 18.8 mph30.3 kmh 28.44 in963.1 mb 0.00 in0.0 mm 0.00 in0.0 mm 0.48 in12.2 mm
08:45 AM 43.0°F6.1°C 37.4°F3.0°C 79% 10.1 mph WSW16.3 kmh WSW 18.8 mph30.3 kmh 28.44 in963.1 mb 0.00 in0.0 mm 0.00 in0.0 mm 0.48 in12.2 mm
08:50 AM 43.0°F6.1°C 37.4°F3.0°C 79% 9.3 mph WSW15.0 kmh WSW 17.2 mph27.7 kmh 28.44 in963.1 mb 0.00 in0.0 mm 0.00 in0.0 mm 0.48 in12.2 mm
08:55 AM 43.2°F6.2°C 37.4°F3.0°C 79% 10.0 mph WSW16.1 kmh WSW 19.7 mph31.7 kmh 28.47 in964.1 mb 0.00 in0.0 mm 0.00 in0.0 mm 0.48 in12.2 mm
09:00 AM 43.3°F6.3°C 37.4°F3.0°C 79% 10.8 mph WSW17.4 kmh WSW 19.7 mph31.7 kmh 28.47 in964.1 mb 0.00 in0.0 mm 0.00 in0.0 mm 0.48 in12.2 mm
09:05 AM 43.3°F6.3°C 37.4°F3.0°C 78% 12.6 mph WSW20.3 kmh WSW 23.0 mph37.0 kmh 28.47 in964.1 mb 0.00 in0.0 mm 0.00 in0.0 mm 0.48 in12.2 mm
09:10 AM 43.5°F6.4°C 37.4°F3.0°C 78% 13.6 mph WSW21.9 kmh WSW 23.0 mph37.0 kmh 28.47 in964.1 mb 0.00 in0.0 mm 0.00 in0.0 mm 0.48 in12.2 mm
09:15 AM 43.3°F6.3°C 37.4°F3.0°C 78% 11.4 mph WSW18.3 kmh WSW 17.7 mph28.5 kmh 28.47 in964.1 mb 0.00 in0.0 mm 0.00 in0.0 mm 0.48 in12.2 mm
09:20 AM 43.5°F6.4°C 37.4°F3.0°C 78% 12.1 mph WSW19.5 kmh WSW 17.0 mph27.4 kmh 28.47 in964.1 mb 0.00 in0.0 mm 0.00 in0.0 mm 0.48 in12.2 mm
09:25 AM 43.7°F6.5°C 37.4°F3.0°C 77% 14.7 mph WSW23.7 kmh WSW 17.7 mph28.5 kmh 28.47 in964.1 mb 0.00 in0.0 mm 0.00 in0.0 mm 0.48 in12.2 mm
09:30 AM 43.7°F6.5°C 37.4°F3.0°C 77% 15.8 mph WSW25.4 kmh WSW 22.4 mph36.0 kmh 28.47 in964.1 mb 0.00 in0.0 mm 0.00 in0.0 mm 0.48 in12.2 mm
09:35 AM 43.9°F6.6°C 37.4°F3.0°C 77% 14.5 mph WSW23.3 kmh WSW 22.4 mph36.0 kmh 28.47 in964.1 mb 0.00 in0.0 mm 0.00 in0.0 mm 0.48 in12.2 mm
09:40 AM 43.9°F6.6°C 37.4°F3.0°C 77% 12.9 mph WSW20.8 kmh WSW 22.4 mph36.0 kmh 28.50 in965.1 mb 0.00 in0.0 mm 0.00 in0.0 mm 0.48 in12.2 mm
09:45 AM 44.1°F6.7°C 37.4°F3.0°C 76% 13.1 mph WSW21.1 kmh WSW 18.8 mph30.3 kmh 28.50 in965.1 mb 0.00 in0.0 mm 0.00 in0.0 mm 0.48 in12.2 mm
09:50 AM 44.2°F6.8°C 37.4°F3.0°C 76% 15.4 mph WSW24.8 kmh WSW 27.1 mph43.6 kmh 28.50 in965.1 mb 0.00 in0.0 mm 0.00 in0.0 mm 0.48 in12.2 mm
09:55 AM 44.2°F6.8°C 37.4°F3.0°C 76% 17.1 mph WSW27.5 kmh WSW 27.1 mph43.6 kmh 28.50 in965.1 mb 0.00 in0.0 mm 0.00 in0.0 mm 0.48 in12.2 mm
10:00 AM 44.2°F6.8°C 37.4°F3.0°C 76% 14.6 mph WSW23.5 kmh WSW 19.5 mph31.4 kmh 28.50 in965.1 mb 0.00 in0.0 mm 0.00 in0.0 mm 0.48 in12.2 mm
10:05 AM 44.2°F6.8°C 37.4°F3.0°C 75% 14.5 mph WSW23.3 kmh WSW 22.8 mph36.7 kmh 28.50 in965.1 mb 0.00 in0.0 mm 0.00 in0.0 mm 0.48 in12.2 mm
10:10 AM 44.2°F6.8°C 37.4°F3.0°C 75% 15.4 mph WSW24.8 kmh WSW 22.8 mph36.7 kmh 28.53 in966.1 mb 0.00 in0.0 mm 0.00 in0.0 mm 0.48 in12.2 mm
10:15 AM 44.4°F6.9°C 37.4°F3.0°C 75% 14.1 mph WSW22.7 kmh WSW 22.8 mph36.7 kmh 28.53 in966.1 mb 0.00 in0.0 mm 0.00 in0.0 mm 0.48 in12.2 mm
10:20 AM 44.6°F7.0°C 37.4°F3.0°C 75% 12.4 mph WSW20.0 kmh WSW 22.6 mph36.4 kmh 28.53 in966.1 mb 0.00 in0.0 mm 0.00 in0.0 mm 0.48 in12.2 mm
10:25 AM 44.8°F7.1°C 37.4°F3.0°C 75% 13.2 mph WSW21.2 kmh WSW 22.6 mph36.4 kmh 28.53 in966.1 mb 0.00 in0.0 mm 0.00 in0.0 mm 0.48 in12.2 mm
10:30 AM 44.8°F7.1°C 37.4°F3.0°C 75% 12.7 mph WSW20.4 kmh WSW 17.7 mph28.5 kmh 28.53 in966.1 mb 0.00 in0.0 mm 0.00 in0.0 mm 0.48 in12.2 mm
10:35 AM 45.1°F7.3°C 37.4°F3.0°C 74% 15.4 mph WSW24.8 kmh WSW 30.0 mph48.3 kmh 28.53 in966.1 mb 0.00 in0.0 mm 0.00 in0.0 mm 0.48 in12.2 mm
10:40 AM 45.1°F7.3°C 37.4°F3.0°C 73% 16.2 mph WSW26.1 kmh WSW 30.0 mph48.3 kmh 28.56 in967.2 mb 0.00 in0.0 mm 0.00 in0.0 mm 0.48 in12.2 mm
10:45 AM 45.5°F7.5°C 37.4°F3.0°C 73% 14.2 mph WSW22.9 kmh WSW 22.6 mph36.4 kmh 28.56 in967.2 mb 0.00 in0.0 mm 0.00 in0.0 mm 0.48 in12.2 mm
10:50 AM 46.0°F7.8°C 37.4°F3.0°C 72% 14.0 mph WSW22.5 kmh WSW 22.6 mph36.4 kmh 28.56 in967.2 mb 0.00 in0.0 mm 0.00 in0.0 mm 0.48 in12.2 mm
10:55 AM 46.4°F8.0°C 39.2°F4.0°C 72% 13.1 mph WSW21.1 kmh WSW 18.1 mph29.1 kmh 28.56 in967.2 mb 0.00 in0.0 mm 0.00 in0.0 mm 0.48 in12.2 mm
11:00 AM 46.8°F8.2°C 37.4°F3.0°C 71% 12.8 mph WSW20.6 kmh WSW 18.1 mph29.1 kmh 28.56 in967.2 mb 0.00 in0.0 mm 0.00 in0.0 mm 0.48 in12.2 mm
11:05 AM 46.8°F8.2°C 37.4°F3.0°C 71% 11.9 mph WSW19.2 kmh WSW 20.1 mph32.3 kmh 28.56 in967.2 mb 0.00 in0.0 mm 0.00 in0.0 mm 0.48 in12.2 mm
11:10 AM 47.3°F8.5°C 37.4°F3.0°C 69% 13.8 mph WSW22.2 kmh WSW 25.3 mph40.7 kmh 28.59 in968.2 mb 0.00 in0.0 mm 0.00 in0.0 mm 0.48 in12.2 mm
11:15 AM 47.3°F8.5°C 39.2°F4.0°C 70% 15.0 mph WSW24.1 kmh WSW 25.3 mph40.7 kmh 28.59 in968.2 mb 0.00 in0.0 mm 0.00 in0.0 mm 0.48 in12.2 mm
11:20 AM 47.3°F8.5°C 37.4°F3.0°C 69% 16.6 mph WSW26.7 kmh WSW 24.4 mph39.3 kmh 28.59 in968.2 mb 0.00 in0.0 mm 0.00 in0.0 mm 0.48 in12.2 mm
11:25 AM 47.7°F8.7°C 37.4°F3.0°C 68% 16.6 mph WSW26.7 kmh WSW 24.4 mph39.3 kmh 28.59 in968.2 mb 0.00 in0.0 mm 0.00 in0.0 mm 0.48 in12.2 mm
11:30 AM 48.9°F9.4°C 37.4°F3.0°C 66% 15.0 mph WSW24.1 kmh WSW 21.9 mph35.2 kmh 28.59 in968.2 mb 0.00 in0.0 mm 0.00 in0.0 mm 0.48 in12.2 mm
11:35 AM 49.3°F9.6°C 39.2°F4.0°C 66% 14.3 mph WSW23.0 kmh WSW 21.9 mph35.2 kmh 28.59 in968.2 mb 0.00 in0.0 mm 0.00 in0.0 mm 0.48 in12.2 mm
11:40 AM 49.6°F9.8°C 39.2°F4.0°C 65% 13.4 mph WSW21.6 kmh WSW 23.5 mph37.8 kmh 28.59 in968.2 mb 0.00 in0.0 mm 0.00 in0.0 mm 0.48 in12.2 mm
11:45 AM 50.2°F10.1°C 39.2°F4.0°C 64% 15.5 mph WSW24.9 kmh WSW 23.5 mph37.8 kmh 28.59 in968.2 mb 0.00 in0.0 mm 0.00 in0.0 mm 0.48 in12.2 mm
11:50 AM 50.7°F10.4°C 39.2°F4.0°C 63% 15.2 mph WSW24.5 kmh WSW 19.2 mph30.9 kmh 28.59 in968.2 mb 0.00 in0.0 mm 0.00 in0.0 mm 0.48 in12.2 mm
11:55 AM 50.5°F10.3°C 39.2°F4.0°C 63% 14.6 mph WSW23.5 kmh WSW 25.9 mph41.7 kmh 28.62 in969.2 mb 0.00 in0.0 mm 0.00 in0.0 mm 0.48 in12.2 mm
12:00 PM 50.9°F10.5°C 39.2°F4.0°C 63% 15.4 mph WSW24.8 kmh WSW 25.9 mph41.7 kmh 28.62 in969.2 mb 0.00 in0.0 mm 0.00 in0.0 mm 0.48 in12.2 mm
12:05 PM 50.9°F10.5°C 39.2°F4.0°C 63% 15.9 mph WSW25.6 kmh WSW 25.9 mph41.7 kmh 28.62 in969.2 mb 0.00 in0.0 mm 0.00 in0.0 mm 0.48 in12.2 mm
12:10 PM 50.0°F10.0°C 37.4°F3.0°C 62% 15.6 mph WSW25.1 kmh WSW 22.4 mph36.0 kmh 28.62 in969.2 mb 0.00 in0.0 mm 0.00 in0.0 mm 0.48 in12.2 mm
12:15 PM 49.8°F9.9°C 37.4°F3.0°C 62% 15.6 mph WSW25.1 kmh WSW 24.6 mph39.6 kmh 28.62 in969.2 mb 0.00 in0.0 mm 0.00 in0.0 mm 0.48 in12.2 mm
12:20 PM 49.8°F9.9°C 37.4°F3.0°C 62% 14.6 mph WSW23.5 kmh WSW 24.6 mph39.6 kmh 28.62 in969.2 mb 0.00 in0.0 mm 0.00 in0.0 mm 0.48 in12.2 mm
12:25 PM 50.2°F10.1°C 37.4°F3.0°C 62% 15.4 mph WSW24.8 kmh WSW 24.4 mph39.3 kmh 28.62 in969.2 mb 0.00 in0.0 mm 0.00 in0.0 mm 0.48 in12.2 mm
12:30 PM 50.2°F10.1°C 37.4°F3.0°C 62% 18.5 mph WSW29.8 kmh WSW 30.2 mph48.6 kmh 28.62 in969.2 mb 0.00 in0.0 mm 0.00 in0.0 mm 0.48 in12.2 mm
12:35 PM 50.9°F10.5°C 37.4°F3.0°C 61% 19.3 mph WSW31.1 kmh WSW 31.3 mph50.4 kmh 28.62 in969.2 mb 0.00 in0.0 mm 0.00 in0.0 mm 0.48 in12.2 mm
12:40 PM 50.2°F10.1°C 37.4°F3.0°C 60% 19.9 mph WSW32.0 kmh WSW 31.3 mph50.4 kmh 28.65 in970.2 mb 0.00 in0.0 mm 0.00 in0.0 mm 0.48 in12.2 mm
12:45 PM 50.2°F10.1°C 37.4°F3.0°C 61% 18.7 mph SW30.1 kmh SW 31.3 mph50.4 kmh 28.65 in970.2 mb 0.00 in0.0 mm 0.00 in0.0 mm 0.48 in12.2 mm
12:50 PM 50.7°F10.4°C 37.4°F3.0°C 61% 17.7 mph WSW28.5 kmh WSW 24.4 mph39.3 kmh 28.65 in970.2 mb 0.00 in0.0 mm 0.00 in0.0 mm 0.48 in12.2 mm
12:55 PM 51.6°F10.9°C 39.2°F4.0°C 60% 16.6 mph WSW26.7 kmh WSW 24.4 mph39.3 kmh 28.65 in970.2 mb 0.00 in0.0 mm 0.00 in0.0 mm 0.48 in12.2 mm
01:00 PM 51.1°F10.6°C 37.4°F3.0°C 59% 16.0 mph WSW25.7 kmh WSW 22.1 mph35.6 kmh 28.65 in970.2 mb 0.00 in0.0 mm 0.00 in0.0 mm 0.48 in12.2 mm
01:05 PM 51.1°F10.6°C 37.4°F3.0°C 59% 17.9 mph WSW28.8 kmh WSW 29.3 mph47.2 kmh 28.65 in970.2 mb 0.00 in0.0 mm 0.00 in0.0 mm 0.48 in12.2 mm
01:10 PM 51.1°F10.6°C 37.4°F3.0°C 60% 16.9 mph WSW27.2 kmh WSW 29.3 mph47.2 kmh 28.65 in970.2 mb 0.00 in0.0 mm 0.00 in0.0 mm 0.48 in12.2 mm
01:15 PM 50.4°F10.2°C 37.4°F3.0°C 59% 17.1 mph WSW27.5 kmh WSW 26.2 mph42.2 kmh 28.65 in970.2 mb 0.00 in0.0 mm 0.00 in0.0 mm 0.48 in12.2 mm
01:20 PM 50.5°F10.3°C 37.4°F3.0°C 59% 17.6 mph WSW28.3 kmh WSW 25.9 mph41.7 kmh 28.65 in970.2 mb 0.00 in0.0 mm 0.00 in0.0 mm 0.48 in12.2 mm
01:25 PM 50.4°F10.2°C 37.4°F3.0°C 58% 18.4 mph WSW29.6 kmh WSW 30.2 mph48.6 kmh 28.68 in971.2 mb 0.00 in0.0 mm 0.00 in0.0 mm 0.48 in12.2 mm
01:30 PM 50.2°F10.1°C 35.6°F2.0°C 57% 18.3 mph WSW29.5 kmh WSW 30.2 mph48.6 kmh 28.68 in971.2 mb 0.00 in0.0 mm 0.00 in0.0 mm 0.48 in12.2 mm
01:35 PM 49.8°F9.9°C 35.6°F2.0°C 57% 17.7 mph WSW28.5 kmh WSW 30.2 mph48.6 kmh 28.68 in971.2 mb 0.00 in0.0 mm 0.00 in0.0 mm 0.48 in12.2 mm
01:40 PM 48.7°F9.3°C 35.6°F2.0°C 58% 16.1 mph WSW25.9 kmh WSW 29.3 mph47.2 kmh 28.68 in971.2 mb 0.00 in0.0 mm 0.00 in0.0 mm 0.48 in12.2 mm
01:45 PM 48.7°F9.3°C 35.6°F2.0°C 58% 17.2 mph WSW27.7 kmh WSW 26.4 mph42.5 kmh 28.68 in971.2 mb 0.00 in0.0 mm 0.00 in0.0 mm 0.48 in12.2 mm
01:50 PM 48.2°F9.0°C 33.8°F1.0°C 58% 17.9 mph WSW28.8 kmh WSW 27.5 mph44.3 kmh 28.68 in971.2 mb 0.00 in0.0 mm 0.00 in0.0 mm 0.48 in12.2 mm
01:55 PM 48.0°F8.9°C 33.8°F1.0°C 58% 15.9 mph WSW25.6 kmh WSW 27.7 mph44.6 kmh 28.71 in972.2 mb 0.00 in0.0 mm 0.00 in0.0 mm 0.48 in12.2 mm
02:00 PM 48.9°F9.4°C 35.6°F2.0°C 58% 13.9 mph WSW22.4 kmh WSW 27.7 mph44.6 kmh 28.71 in972.2 mb 0.00 in0.0 mm 0.00 in0.0 mm 0.48 in12.2 mm
02:05 PM 48.6°F9.2°C 35.6°F2.0°C 58% 13.8 mph W22.2 kmh W 22.1 mph35.6 kmh 28.71 in972.2 mb 0.00 in0.0 mm 0.00 in0.0 mm 0.48 in12.2 mm
02:10 PM 48.4°F9.1°C 33.8°F1.0°C 57% 15.6 mph WSW25.1 kmh WSW 22.1 mph35.6 kmh 28.71 in972.2 mb 0.00 in0.0 mm 0.00 in0.0 mm 0.48 in12.2 mm
02:15 PM 48.7°F9.3°C 33.8°F1.0°C 57% 15.7 mph WSW25.3 kmh WSW 21.3 mph34.3 kmh 28.71 in972.2 mb 0.00 in0.0 mm 0.00 in0.0 mm 0.48 in12.2 mm
02:20 PM 49.1°F9.5°C 35.6°F2.0°C 58% 13.7 mph WSW22.0 kmh WSW 21.3 mph34.3 kmh 28.71 in972.2 mb 0.00 in0.0 mm 0.00 in0.0 mm 0.48 in12.2 mm
02:25 PM 48.9°F9.4°C 33.8°F1.0°C 57% 12.4 mph WSW20.0 kmh WSW 19.9 mph32.0 kmh 28.71 in972.2 mb 0.00 in0.0 mm 0.00 in0.0 mm 0.48 in12.2 mm
02:30 PM 48.9°F9.4°C 33.8°F1.0°C 57% 12.8 mph WSW20.6 kmh WSW 19.9 mph32.0 kmh 28.71 in972.2 mb 0.00 in0.0 mm 0.00 in0.0 mm 0.48 in12.2 mm
02:35 PM 48.7°F9.3°C 33.8°F1.0°C 57% 13.2 mph SW21.2 kmh SW 19.2 mph30.9 kmh 28.71 in972.2 mb 0.00 in0.0 mm 0.00 in0.0 mm 0.48 in12.2 mm
02:40 PM 48.6°F9.2°C 35.6°F2.0°C 58% 12.8 mph WSW20.6 kmh WSW 19.2 mph30.9 kmh 28.74 in973.2 mb 0.00 in0.0 mm 0.00 in0.0 mm 0.48 in12.2 mm
02:45 PM 48.6°F9.2°C 33.8°F1.0°C 57% 14.9 mph WSW24.0 kmh WSW 23.5 mph37.8 kmh 28.74 in973.2 mb 0.00 in0.0 mm 0.00 in0.0 mm 0.48 in12.2 mm
02:50 PM 48.6°F9.2°C 35.6°F2.0°C 58% 15.2 mph WSW24.5 kmh WSW 23.5 mph37.8 kmh 28.74 in973.2 mb 0.00 in0.0 mm 0.00 in0.0 mm 0.48 in12.2 mm
02:55 PM 48.4°F9.1°C 35.6°F2.0°C 59% 12.6 mph WSW20.3 kmh WSW 15.4 mph24.8 kmh 28.71 in972.2 mb 0.00 in0.0 mm 0.00 in0.0 mm 0.48 in12.2 mm
03:00 PM 48.4°F9.1°C 35.6°F2.0°C 59% 13.4 mph WSW21.6 kmh WSW 17.2 mph27.7 kmh 28.71 in972.2 mb 0.00 in0.0 mm 0.00 in0.0 mm 0.48 in12.2 mm
03:05 PM 48.2°F9.0°C 35.6°F2.0°C 59% 13.6 mph WSW21.9 kmh WSW 17.7 mph28.5 kmh 28.71 in972.2 mb 0.00 in0.0 mm 0.00 in0.0 mm 0.48 in12.2 mm
03:10 PM 48.0°F8.9°C 35.6°F2.0°C 60% 13.4 mph WSW21.6 kmh WSW 17.7 mph28.5 kmh 28.80 in975.3 mb 0.00 in0.0 mm 0.00 in0.0 mm 0.48 in12.2 mm
03:15 PM 48.0°F8.9°C 35.6°F2.0°C 60% 14.1 mph WSW22.7 kmh WSW 21.3 mph34.3 kmh 28.80 in975.3 mb 0.00 in0.0 mm 0.00 in0.0 mm 0.48 in12.2 mm
03:20 PM 47.7°F8.7°C 35.6°F2.0°C 60% 15.7 mph WSW25.3 kmh WSW 22.4 mph36.0 kmh 28.80 in975.3 mb 0.00 in0.0 mm 0.00 in0.0 mm 0.48 in12.2 mm
03:25 PM 47.1°F8.4°C 33.8°F1.0°C 61% 15.1 mph WSW24.3 kmh WSW 22.4 mph36.0 kmh 28.80 in975.3 mb 0.00 in0.0 mm 0.00 in0.0 mm 0.48 in12.2 mm
03:30 PM 46.9°F8.3°C 33.8°F1.0°C 61% 13.5 mph WSW21.7 kmh WSW 22.4 mph36.0 kmh 28.80 in975.3 mb 0.00 in0.0 mm 0.00 in0.0 mm 0.48 in12.2 mm
03:35 PM 46.8°F8.2°C 33.8°F1.0°C 61% 12.8 mph WSW20.6 kmh WSW 17.4 mph28.0 kmh 28.80 in975.3 mb 0.00 in0.0 mm 0.00 in0.0 mm 0.48 in12.2 mm
03:40 PM 46.8°F8.2°C 33.8°F1.0°C 62% 11.7 mph WSW18.8 kmh WSW 17.4 mph28.0 kmh 28.80 in975.3 mb 0.00 in0.0 mm 0.00 in0.0 mm 0.48 in12.2 mm
03:45 PM 46.6°F8.1°C 35.6°F2.0°C 63% 8.4 mph WSW13.5 kmh WSW 13.0 mph20.9 kmh 28.80 in975.3 mb 0.00 in0.0 mm 0.00 in0.0 mm 0.48 in12.2 mm
03:50 PM 46.4°F8.0°C 35.6°F2.0°C 63% 7.2 mph WSW11.6 kmh WSW 13.0 mph20.9 kmh 28.80 in975.3 mb 0.00 in0.0 mm 0.00 in0.0 mm 0.48 in12.2 mm
03:55 PM 46.4°F8.0°C 35.6°F2.0°C 64% 7.0 mph WSW11.3 kmh WSW 10.5 mph16.9 kmh 28.80 in975.3 mb 0.00 in0.0 mm 0.00 in0.0 mm 0.48 in12.2 mm
04:00 PM 46.2°F7.9°C 35.6°F2.0°C 64% 8.2 mph WSW13.2 kmh WSW 11.0 mph17.7 kmh 28.80 in975.3 mb 0.00 in0.0 mm 0.00 in0.0 mm 0.48 in12.2 mm
04:05 PM 46.2°F7.9°C 35.6°F2.0°C 64% 9.1 mph W14.6 kmh W 12.3 mph19.8 kmh 28.80 in975.3 mb 0.00 in0.0 mm 0.00 in0.0 mm 0.48 in12.2 mm
04:10 PM 45.9°F7.7°C 33.8°F1.0°C 64% 10.5 mph WSW16.9 kmh WSW 17.4 mph28.0 kmh 28.80 in975.3 mb 0.00 in0.0 mm 0.00 in0.0 mm 0.48 in12.2 mm
04:15 PM 45.7°F7.6°C 35.6°F2.0°C 65% 9.6 mph SW15.4 kmh SW 17.4 mph28.0 kmh 28.80 in975.3 mb 0.00 in0.0 mm 0.00 in0.0 mm 0.48 in12.2 mm
04:20 PM 45.3°F7.4°C 33.8°F1.0°C 65% 6.9 mph SW11.1 kmh SW 12.5 mph20.1 kmh 28.80 in975.3 mb 0.00 in0.0 mm 0.00 in0.0 mm 0.48 in12.2 mm
04:25 PM 45.1°F7.3°C 33.8°F1.0°C 66% 8.1 mph SW13.0 kmh SW 14.5 mph23.3 kmh 28.80 in975.3 mb 0.00 in0.0 mm 0.00 in0.0 mm 0.48 in12.2 mm
04:30 PM 45.0°F7.2°C 35.6°F2.0°C 67% 8.3 mph SW13.4 kmh SW 14.5 mph23.3 kmh 28.80 in975.3 mb 0.00 in0.0 mm 0.00 in0.0 mm 0.48 in12.2 mm
04:35 PM 44.6°F7.0°C 33.8°F1.0°C 67% 6.7 mph WSW10.8 kmh WSW 11.0 mph17.7 kmh 28.80 in975.3 mb 0.00 in0.0 mm 0.00 in0.0 mm 0.48 in12.2 mm
04:40 PM 44.4°F6.9°C 35.6°F2.0°C 68% 5.4 mph WSW8.7 kmh WSW 11.0 mph17.7 kmh 28.80 in975.3 mb 0.00 in0.0 mm 0.00 in0.0 mm 0.48 in12.2 mm
04:45 PM 44.2°F6.8°C 33.8°F1.0°C 68% 6.2 mph WSW10.0 kmh WSW 13.2 mph21.2 kmh 28.80 in975.3 mb 0.00 in0.0 mm 0.00 in0.0 mm 0.48 in12.2 mm
04:50 PM 44.1°F6.7°C 33.8°F1.0°C 68% 7.4 mph WSW11.9 kmh WSW 13.2 mph21.2 kmh 28.80 in975.3 mb 0.00 in0.0 mm 0.00 in0.0 mm 0.48 in12.2 mm
04:55 PM 44.1°F6.7°C 33.8°F1.0°C 69% 7.1 mph WSW11.4 kmh WSW 12.3 mph19.8 kmh 28.80 in975.3 mb 0.00 in0.0 mm 0.00 in0.0 mm 0.48 in12.2 mm
05:00 PM 43.7°F6.5°C 33.8°F1.0°C 69% 7.3 mph WSW11.7 kmh WSW 12.3 mph19.8 kmh 28.80 in975.3 mb 0.00 in0.0 mm 0.00 in0.0 mm 0.48 in12.2 mm
05:05 PM 43.3°F6.3°C 33.8°F1.0°C 69% 6.7 mph WSW10.8 kmh WSW 12.3 mph19.8 kmh 28.80 in975.3 mb 0.00 in0.0 mm 0.00 in0.0 mm 0.48 in12.2 mm
05:10 PM 43.5°F6.4°C 33.8°F1.0°C 69% 8.8 mph WSW14.2 kmh WSW 13.0 mph20.9 kmh 28.82 in976.0 mb 0.00 in0.0 mm 0.00 in0.0 mm 0.48 in12.2 mm
05:15 PM 43.3°F6.3°C 33.8°F1.0°C 69% 9.3 mph WSW15.0 kmh WSW 13.0 mph20.9 kmh 28.82 in976.0 mb 0.00 in0.0 mm 0.00 in0.0 mm 0.48 in12.2 mm
05:20 PM 43.2°F6.2°C 33.8°F1.0°C 69% 7.6 mph WSW12.2 kmh WSW 11.9 mph19.2 kmh 28.82 in976.0 mb 0.00 in0.0 mm 0.00 in0.0 mm 0.48 in12.2 mm
05:25 PM 43.0°F6.1°C 33.8°F1.0°C 70% 6.9 mph WSW11.1 kmh WSW 10.7 mph17.2 kmh 28.82 in976.0 mb 0.00 in0.0 mm 0.00 in0.0 mm 0.48 in12.2 mm
05:30 PM 42.8°F6.0°C 33.8°F1.0°C 70% 7.4 mph WSW11.9 kmh WSW 12.3 mph19.8 kmh 28.82 in976.0 mb 0.00 in0.0 mm 0.00 in0.0 mm 0.48 in12.2 mm
05:35 PM 42.8°F6.0°C 33.8°F1.0°C 71% 7.3 mph SW11.7 kmh SW 13.0 mph20.9 kmh 28.82 in976.0 mb 0.00 in0.0 mm 0.00 in0.0 mm 0.48 in12.2 mm
05:40 PM 42.8°F6.0°C 33.8°F1.0°C 71% 6.4 mph SW10.3 kmh SW 13.0 mph20.9 kmh 28.82 in976.0 mb 0.00 in0.0 mm 0.00 in0.0 mm 0.48 in12.2 mm
05:45 PM 42.8°F6.0°C 33.8°F1.0°C 71% 6.6 mph WSW10.6 kmh WSW 13.0 mph20.9 kmh 28.82 in976.0 mb 0.00 in0.0 mm 0.00 in0.0 mm 0.48 in12.2 mm
05:50 PM 42.6°F5.9°C 33.8°F1.0°C 71% 6.3 mph WSW10.1 kmh WSW 12.3 mph19.8 kmh 28.82 in976.0 mb 0.00 in0.0 mm 0.00 in0.0 mm 0.48 in12.2 mm
05:55 PM 42.8°F6.0°C 33.8°F1.0°C 71% 7.4 mph WSW11.9 kmh WSW 15.2 mph24.5 kmh 28.82 in976.0 mb 0.00 in0.0 mm 0.00 in0.0 mm 0.48 in12.2 mm
06:00 PM 42.6°F5.9°C 33.8°F1.0°C 71% 8.0 mph SW12.9 kmh SW 15.2 mph24.5 kmh 28.82 in976.0 mb 0.00 in0.0 mm 0.00 in0.0 mm 0.48 in12.2 mm
06:05 PM 42.4°F5.8°C 33.8°F1.0°C 71% 6.7 mph WSW10.8 kmh WSW 11.0 mph17.7 kmh 28.82 in976.0 mb 0.00 in0.0 mm 0.00 in0.0 mm 0.48 in12.2 mm
06:10 PM 42.3°F5.7°C 33.8°F1.0°C 71% 6.0 mph WSW9.7 kmh WSW 10.7 mph17.2 kmh 28.82 in976.0 mb 0.00 in0.0 mm 0.00 in0.0 mm 0.48 in12.2 mm
06:15 PM 42.1°F5.6°C 33.8°F1.0°C 71% 4.4 mph WSW7.1 kmh WSW 7.4 mph11.9 kmh 28.82 in976.0 mb 0.00 in0.0 mm 0.00 in0.0 mm 0.48 in12.2 mm
06:20 PM 41.7°F5.4°C 33.8°F1.0°C 72% 4.0 mph SW6.4 kmh SW 7.4 mph11.9 kmh 28.82 in976.0 mb 0.00 in0.0 mm 0.00 in0.0 mm 0.48 in12.2 mm
06:25 PM 41.9°F5.5°C 33.8°F1.0°C 71% 4.2 mph SW6.8 kmh SW 8.1 mph13.0 kmh 28.82 in976.0 mb 0.00 in0.0 mm 0.00 in0.0 mm 0.48 in12.2 mm
06:30 PM 41.9°F5.5°C 33.8°F1.0°C 71% 4.2 mph WSW6.8 kmh WSW 8.1 mph13.0 kmh 28.82 in976.0 mb 0.00 in0.0 mm 0.00 in0.0 mm 0.48 in12.2 mm
06:35 PM 41.5°F5.3°C 33.8°F1.0°C 71% 4.0 mph WSW6.4 kmh WSW 6.0 mph9.7 kmh 28.82 in976.0 mb 0.00 in0.0 mm 0.00 in0.0 mm 0.48 in12.2 mm
06:40 PM 41.4°F5.2°C 33.8°F1.0°C 71% 4.6 mph SW7.4 kmh SW 7.2 mph11.6 kmh 28.82 in976.0 mb 0.00 in0.0 mm 0.00 in0.0 mm 0.48 in12.2 mm
06:45 PM 41.4°F5.2°C 33.8°F1.0°C 71% 4.9 mph WSW7.9 kmh WSW 7.2 mph11.6 kmh 28.82 in976.0 mb 0.00 in0.0 mm 0.00 in0.0 mm 0.48 in12.2 mm
06:50 PM 41.2°F5.1°C 33.8°F1.0°C 71% 4.4 mph WSW7.1 kmh WSW 6.0 mph9.7 kmh 28.82 in976.0 mb 0.00 in0.0 mm 0.00 in0.0 mm 0.48 in12.2 mm
06:55 PM 41.0°F5.0°C 33.8°F1.0°C 72% 5.0 mph WSW8.0 kmh WSW 8.7 mph14.0 kmh 28.80 in975.3 mb 0.00 in0.0 mm 0.00 in0.0 mm 0.48 in12.2 mm
07:00 PM 40.6°F4.8°C 32.0°F0.0°C 72% 5.0 mph WSW8.0 kmh WSW 8.7 mph14.0 kmh 28.80 in975.3 mb 0.00 in0.0 mm 0.00 in0.0 mm 0.48 in12.2 mm
07:05 PM 40.5°F4.7°C 32.0°F0.0°C 72% 4.0 mph WSW6.4 kmh WSW 7.2 mph11.6 kmh 28.80 in975.3 mb 0.00 in0.0 mm 0.00 in0.0 mm 0.48 in12.2 mm
07:10 PM 40.3°F4.6°C 32.0°F0.0°C 72% 3.3 mph WSW5.3 kmh WSW 7.2 mph11.6 kmh 28.82 in976.0 mb 0.00 in0.0 mm 0.00 in0.0 mm 0.48 in12.2 mm
07:15 PM 40.3°F4.6°C 32.0°F0.0°C 73% 2.6 mph WSW4.2 kmh WSW 3.8 mph6.1 kmh 28.82 in976.0 mb 0.00 in0.0 mm 0.00 in0.0 mm 0.48 in12.2 mm
07:20 PM 40.1°F4.5°C 32.0°F0.0°C 73% 3.2 mph SW5.1 kmh SW 6.3 mph10.1 kmh 28.82 in976.0 mb 0.00 in0.0 mm 0.00 in0.0 mm 0.48 in12.2 mm
07:25 PM 39.9°F4.4°C 32.0°F0.0°C 73% 3.1 mph SW5.0 kmh SW 6.3 mph10.1 kmh 28.80 in975.3 mb 0.00 in0.0 mm 0.00 in0.0 mm 0.48 in12.2 mm
07:30 PM 39.9°F4.4°C 32.0°F0.0°C 73% 2.7 mph WSW4.3 kmh WSW 4.0 mph6.4 kmh 28.80 in975.3 mb 0.00 in0.0 mm 0.00 in0.0 mm 0.48 in12.2 mm
07:35 PM 39.7°F4.3°C 32.0°F0.0°C 73% 2.7 mph WSW4.3 kmh WSW 6.0 mph9.7 kmh 28.80 in975.3 mb 0.00 in0.0 mm 0.00 in0.0 mm 0.48 in12.2 mm
07:40 PM 39.7°F4.3°C 32.0°F0.0°C 73% 2.7 mph WSW4.3 kmh WSW 6.0 mph9.7 kmh 28.80 in975.3 mb 0.00 in0.0 mm 0.00 in0.0 mm 0.48 in12.2 mm
07:45 PM 39.7°F4.3°C 32.0°F0.0°C 73% 2.2 mph SW3.5 kmh SW 4.0 mph6.4 kmh 28.80 in975.3 mb 0.00 in0.0 mm 0.00 in0.0 mm 0.48 in12.2 mm
07:50 PM 39.7°F4.3°C 32.0°F0.0°C 73% 2.9 mph SW4.7 kmh SW 5.4 mph8.7 kmh 28.80 in975.3 mb 0.00 in0.0 mm 0.00 in0.0 mm 0.48 in12.2 mm
07:55 PM 39.6°F4.2°C 32.0°F0.0°C 73% 2.6 mph SW4.2 kmh SW 5.4 mph8.7 kmh 28.80 in975.3 mb 0.00 in0.0 mm 0.00 in0.0 mm 0.48 in12.2 mm
08:00 PM 39.6°F4.2°C 32.0°F0.0°C 73% 1.9 mph SW3.1 kmh SW 3.1 mph5.0 kmh 28.80 in975.3 mb 0.00 in0.0 mm 0.00 in0.0 mm 0.48 in12.2 mm
08:05 PM 39.4°F4.1°C 32.0°F0.0°C 73% 2.0 mph SSW3.2 kmh SSW 4.9 mph7.9 kmh 28.80 in975.3 mb 0.00 in0.0 mm 0.00 in0.0 mm 0.48 in12.2 mm
08:10 PM 39.4°F4.1°C 32.0°F0.0°C 73% 1.8 mph SW2.9 kmh SW 4.9 mph7.9 kmh 28.80 in975.3 mb 0.00 in0.0 mm 0.00 in0.0 mm 0.48 in12.2 mm
08:15 PM 39.6°F4.2°C 32.0°F0.0°C 74% 1.1 mph W1.8 kmh W 2.7 mph4.3 kmh 28.80 in975.3 mb 0.00 in0.0 mm 0.00 in0.0 mm 0.48 in12.2 mm
08:20 PM 39.6°F4.2°C 32.0°F0.0°C 74% 1.3 mph WSW2.1 kmh WSW 2.7 mph4.3 kmh 28.80 in975.3 mb 0.00 in0.0 mm 0.00 in0.0 mm 0.48 in12.2 mm
08:25 PM 39.6°F4.2°C 32.0°F0.0°C 74% 2.1 mph SW3.4 kmh SW 5.4 mph8.7 kmh 28.80 in975.3 mb 0.00 in0.0 mm 0.00 in0.0 mm 0.48 in12.2 mm
08:30 PM 39.6°F4.2°C 32.0°F0.0°C 74% 2.1 mph SW3.4 kmh SW 5.4 mph8.7 kmh 28.80 in975.3 mb 0.00 in0.0 mm 0.00 in0.0 mm 0.48 in12.2 mm
08:35 PM 39.4°F4.1°C 32.0°F0.0°C 74% 1.9 mph SW3.1 kmh SW 2.9 mph4.7 kmh 28.80 in975.3 mb 0.00 in0.0 mm 0.00 in0.0 mm 0.48 in12.2 mm
08:40 PM 39.6°F4.2°C 32.0°F0.0°C 74% 2.4 mph SW3.9 kmh SW 5.6 mph9.0 kmh 28.77 in974.3 mb 0.00 in0.0 mm 0.00 in0.0 mm 0.48 in12.2 mm
08:45 PM 39.9°F4.4°C 32.0°F0.0°C 74% 3.0 mph WSW4.8 kmh WSW 5.6 mph9.0 kmh 28.77 in974.3 mb 0.00 in0.0 mm 0.00 in0.0 mm 0.48 in12.2 mm
08:50 PM 40.3°F4.6°C 33.8°F1.0°C 74% 2.5 mph WSW4.0 kmh WSW 5.4 mph8.7 kmh 28.77 in974.3 mb 0.00 in0.0 mm 0.00 in0.0 mm 0.48 in12.2 mm
08:55 PM 40.5°F4.7°C 33.8°F1.0°C 74% 2.5 mph WSW4.0 kmh WSW 3.6 mph5.8 kmh 28.80 in975.3 mb 0.00 in0.0 mm 0.00 in0.0 mm 0.48 in12.2 mm
09:00 PM 40.5°F4.7°C 33.8°F1.0°C 74% 3.3 mph SW5.3 kmh SW 5.4 mph8.7 kmh 28.80 in975.3 mb 0.00 in0.0 mm 0.00 in0.0 mm 0.48 in12.2 mm
09:05 PM 40.5°F4.7°C 33.8°F1.0°C 74% 3.2 mph SSW5.1 kmh SSW 5.4 mph8.7 kmh 28.80 in975.3 mb 0.00 in0.0 mm 0.00 in0.0 mm 0.48 in12.2 mm
09:10 PM 40.3°F4.6°C 33.8°F1.0°C 74% 2.6 mph SSW4.2 kmh SSW 4.3 mph6.9 kmh 28.80 in975.3 mb 0.00 in0.0 mm 0.00 in0.0 mm 0.48 in12.2 mm
09:15 PM 39.7°F4.3°C 32.0°F0.0°C 74% 2.0 mph SSW3.2 kmh SSW 4.0 mph6.4 kmh 28.80 in975.3 mb 0.00 in0.0 mm 0.00 in0.0 mm 0.48 in12.2 mm
09:20 PM 39.7°F4.3°C 32.0°F0.0°C 74% 2.0 mph SSW3.2 kmh SSW 3.6 mph5.8 kmh 28.80 in975.3 mb 0.00 in0.0 mm 0.00 in0.0 mm 0.48 in12.2 mm
09:25 PM 39.7°F4.3°C 32.0°F0.0°C 74% 1.7 mph SSW2.7 kmh SSW 4.9 mph7.9 kmh 28.80 in975.3 mb 0.00 in0.0 mm 0.00 in0.0 mm 0.48 in12.2 mm
09:30 PM 39.6°F4.2°C 33.8°F1.0°C 75% 2.0 mph S3.2 kmh S 4.9 mph7.9 kmh 28.80 in975.3 mb 0.00 in0.0 mm 0.00 in0.0 mm 0.48 in12.2 mm
09:35 PM 39.6°F4.2°C 33.8°F1.0°C 75% 2.6 mph S4.2 kmh S 4.9 mph7.9 kmh 28.80 in975.3 mb 0.00 in0.0 mm 0.00 in0.0 mm 0.48 in12.2 mm
09:40 PM 39.6°F4.2°C 33.8°F1.0°C 75% 1.7 mph S2.7 kmh S 3.6 mph5.8 kmh 28.80 in975.3 mb 0.00 in0.0 mm 0.00 in0.0 mm 0.48 in12.2 mm
09:45 PM 39.0°F3.9°C 32.0°F0.0°C 75% 0.9 mph S1.4 kmh S 3.1 mph5.0 kmh 28.80 in975.3 mb 0.00 in0.0 mm 0.00 in0.0 mm 0.48 in12.2 mm
09:50 PM 38.7°F3.7°C 32.0°F0.0°C 75% 0.7 mph SSW1.1 kmh SSW 2.2 mph3.5 kmh 28.80 in975.3 mb 0.00 in0.0 mm 0.00 in0.0 mm 0.48 in12.2 mm
09:55 PM 38.3°F3.5°C 32.0°F0.0°C 75% 0.7 mph SSW1.1 kmh SSW 2.2 mph3.5 kmh 28.80 in975.3 mb 0.00 in0.0 mm 0.00 in0.0 mm 0.48 in12.2 mm
10:00 PM 38.5°F3.6°C 32.0°F0.0°C 76% 0.5 mph S0.8 kmh S 1.1 mph1.8 kmh 28.80 in975.3 mb 0.00 in0.0 mm 0.00 in0.0 mm 0.48 in12.2 mm
10:05 PM 38.1°F3.4°C 32.0°F0.0°C 75% 0.4 mph SSW0.6 kmh SSW 1.1 mph1.8 kmh 28.80 in975.3 mb 0.00 in0.0 mm 0.00 in0.0 mm 0.48 in12.2 mm
10:10 PM 37.9°F3.3°C 32.0°F0.0°C 75% 0.1 mph NNE0.2 kmh NNE 1.1 mph1.8 kmh 28.80 in975.3 mb 0.00 in0.0 mm 0.00 in0.0 mm 0.48 in12.2 mm
10:15 PM 37.6°F3.1°C 30.2°F-1.0°C 75% 0.3 mph NNE0.5 kmh NNE 1.1 mph1.8 kmh 28.80 in975.3 mb 0.00 in0.0 mm 0.00 in0.0 mm 0.48 in12.2 mm
10:20 PM 37.8°F3.2°C 32.0°F0.0°C 75% 1.2 mph ENE1.9 kmh ENE 2.2 mph3.5 kmh 28.80 in975.3 mb 0.00 in0.0 mm 0.00 in0.0 mm 0.48 in12.2 mm
10:25 PM 37.2°F2.9°C 30.2°F-1.0°C 76% 1.6 mph E2.6 kmh E 2.2 mph3.5 kmh 28.80 in975.3 mb 0.00 in0.0 mm 0.00 in0.0 mm 0.48 in12.2 mm
10:30 PM 37.2°F2.9°C 30.2°F-1.0°C 76% 1.0 mph ESE1.6 kmh ESE 1.6 mph2.6 kmh 28.80 in975.3 mb 0.00 in0.0 mm 0.00 in0.0 mm 0.48 in12.2 mm
10:35 PM 37.0°F2.8°C 30.2°F-1.0°C 76% 0.6 mph SE1.0 kmh SE 1.3 mph2.1 kmh 28.80 in975.3 mb 0.00 in0.0 mm 0.00 in0.0 mm 0.48 in12.2 mm
10:40 PM 36.7°F2.6°C 30.2°F-1.0°C 76% 0.6 mph SE1.0 kmh SE 1.3 mph2.1 kmh 28.74 in973.2 mb 0.00 in0.0 mm 0.00 in0.0 mm 0.48 in12.2 mm
10:45 PM 36.3°F2.4°C 30.2°F-1.0°C 76% 0.5 mph SE0.8 kmh SE 2.0 mph3.2 kmh 28.74 in973.2 mb 0.00 in0.0 mm 0.00 in0.0 mm 0.48 in12.2 mm
10:50 PM 36.3°F2.4°C 30.2°F-1.0°C 76% 0.4 mph SE0.6 kmh SE 2.0 mph3.2 kmh 28.74 in973.2 mb 0.00 in0.0 mm 0.00 in0.0 mm 0.48 in12.2 mm
10:55 PM 36.1°F2.3°C 30.2°F-1.0°C 77% 0.1 mph SE0.2 kmh SE 0.9 mph1.4 kmh 28.77 in974.3 mb 0.00 in0.0 mm 0.00 in0.0 mm 0.48 in12.2 mm
11:00 PM 36.5°F2.5°C 30.2°F-1.0°C 77% 0.5 mph E0.8 kmh E 2.0 mph3.2 kmh 28.77 in974.3 mb 0.00 in0.0 mm 0.00 in0.0 mm 0.48 in12.2 mm
11:05 PM 36.9°F2.7°C 30.2°F-1.0°C 77% 1.3 mph E2.1 kmh E 2.9 mph4.7 kmh 28.77 in974.3 mb 0.00 in0.0 mm 0.00 in0.0 mm 0.48 in12.2 mm
11:10 PM 37.0°F2.8°C 32.0°F0.0°C 77% 1.2 mph E1.9 kmh E 2.9 mph4.7 kmh 28.77 in974.3 mb 0.00 in0.0 mm 0.00 in0.0 mm 0.48 in12.2 mm
11:15 PM 37.4°F3.0°C 32.0°F0.0°C 77% 1.1 mph ESE1.8 kmh ESE 3.6 mph5.8 kmh 28.77 in974.3 mb 0.00 in0.0 mm 0.00 in0.0 mm 0.48 in12.2 mm
11:20 PM 37.6°F3.1°C 32.0°F0.0°C 77% 1.0 mph SE1.6 kmh SE 3.6 mph5.8 kmh 28.77 in974.3 mb 0.00 in0.0 mm 0.00 in0.0 mm 0.48 in12.2 mm
11:25 PM 37.8°F3.2°C 32.0°F0.0°C 77% 0.9 mph SE1.4 kmh SE 3.6 mph5.8 kmh 28.77 in974.3 mb 0.00 in0.0 mm 0.00 in0.0 mm 0.48 in12.2 mm
11:30 PM 37.8°F3.2°C 32.0°F0.0°C 77% 0.6 mph SE1.0 kmh SE 3.6 mph5.8 kmh 28.77 in974.3 mb 0.00 in0.0 mm 0.00 in0.0 mm 0.48 in12.2 mm
11:35 PM 37.8°F3.2°C 32.0°F0.0°C 77% 0.5 mph SE0.8 kmh SE 3.6 mph5.8 kmh 28.77 in974.3 mb 0.00 in0.0 mm 0.00 in0.0 mm 0.48 in12.2 mm
11:40 PM 37.8°F3.2°C 32.0°F0.0°C 77% 0.4 mph ESE0.6 kmh ESE 1.6 mph2.6 kmh 28.77 in974.3 mb 0.00 in0.0 mm 0.00 in0.0 mm 0.48 in12.2 mm
11:45 PM 37.8°F3.2°C 32.0°F0.0°C 77% 0.4 mph E0.6 kmh E 1.1 mph1.8 kmh 28.77 in974.3 mb 0.00 in0.0 mm 0.00 in0.0 mm 0.48 in12.2 mm
11:50 PM 37.9°F3.3°C 32.0°F0.0°C 77% 0.3 mph E0.5 kmh E 1.1 mph1.8 kmh 28.77 in974.3 mb 0.00 in0.0 mm 0.00 in0.0 mm 0.48 in12.2 mm
11:55 PM 37.9°F3.3°C 32.0°F0.0°C 77% 0.1 mph SE0.2 kmh SE 0.9 mph1.4 kmh 28.77 in974.3 mb 0.00 in0.0 mm 0.00 in0.0 mm 0.48 in12.2 mm